Time;durP1;ratioP1;P1;durP2;ratioP2;P2;SDS_P1;SDS_P2;PMS_P1;PMS_P2;Temp;Humidity;BMP_temperature;BMP_pressure;BME280_temperature;BME280_humidity;BME280_pressure;Samples;Min_cycle;Max_cycle;Signal;HPM_P1;HPM_P2
2023/05/09 00:01:16;;;;;;;6.23;3.70;;;;;;;8.06;61.66;101897.34;5006625;28;20221;-72
2023/05/09 00:03:42;;;;;;;4.47;3.13;;;;;;;8.06;59.48;101892.06;5006450;28;20209;-72
2023/05/09 00:06:12;;;;;;;6.83;3.77;;;;;;;8.05;59.74;101894.97;5002330;28;20826;-72
2023/05/09 00:08:40;;;;;;;4.17;2.97;;;;;;;8.05;59.64;101890.50;5007382;28;20556;-72
2023/05/09 00:11:06;;;;;;;4.70;3.17;;;;;;;8.04;59.36;101888.16;5003704;28;20236;-72
2023/05/09 00:13:33;;;;;;;5.10;3.53;;;;;;;8.02;59.98;101885.78;5006323;28;20205;-72
2023/05/09 00:16:00;;;;;;;4.37;3.10;;;;;;;8.01;59.16;101886.84;5004524;28;20227;-72
2023/05/09 00:18:27;;;;;;;3.73;2.93;;;;;;;7.98;59.71;101887.41;5006645;28;20372;-72
2023/05/09 00:20:53;;;;;;;5.50;3.20;;;;;;;7.97;58.59;101891.09;5006167;28;20197;-73
2023/05/09 00:23:21;;;;;;;5.10;3.27;;;;;;;7.98;58.23;101884.00;5007593;28;20197;-72
2023/05/09 00:25:47;;;;;;;4.03;3.27;;;;;;;7.96;59.17;101883.47;5002835;28;20970;-72
2023/05/09 00:28:14;;;;;;;5.67;3.07;;;;;;;7.97;58.79;101871.91;5004131;28;20691;-72
2023/05/09 00:30:40;;;;;;;4.30;3.33;;;;;;;7.94;59.70;101872.47;5005601;28;20567;-72
2023/05/09 00:33:06;;;;;;;5.07;3.40;;;;;;;7.93;59.19;101874.28;4988844;28;20219;-72
2023/05/09 00:35:35;;;;;;;4.57;3.40;;;;;;;7.94;59.54;101875.88;4988812;28;20225;-73
2023/05/09 00:38:02;;;;;;;5.53;3.60;;;;;;;7.92;58.26;101867.47;4989310;28;20199;-73
2023/05/09 00:40:30;;;;;;;4.03;3.20;;;;;;;7.91;59.46;101871.16;5000362;28;20216;-72
2023/05/09 00:42:58;;;;;;;4.23;3.17;;;;;;;7.88;59.10;101866.44;4999994;28;20758;-72
2023/05/09 00:45:25;;;;;;;4.97;3.63;;;;;;;7.85;59.01;101864.38;5004586;28;20228;-72
2023/05/09 00:47:52;;;;;;;5.63;2.90;;;;;;;7.82;59.09;101861.53;5006250;28;20619;-72
2023/05/09 00:50:18;;;;;;;4.40;3.40;;;;;;;7.79;59.50;101854.97;5002563;28;20212;-72
2023/05/09 00:52:45;;;;;;;5.10;3.40;;;;;;;7.76;60.13;101850.25;5002370;28;20201;-72
2023/05/09 00:55:14;;;;;;;3.60;3.17;;;;;;;7.75;58.53;101853.16;5001186;28;20219;-71
2023/05/09 00:57:42;;;;;;;6.57;3.50;;;;;;;7.73;58.90;101847.38;5031522;23;20247;-71
2023/05/09 01:00:11;;;;;;;3.97;3.17;;;;;;;7.69;60.01;101852.41;5023431;28;20557;-71
2023/05/09 01:02:38;;;;;;;6.30;2.90;;;;;;;7.66;60.19;101847.69;5020467;28;20722;-71
2023/05/09 01:05:05;;;;;;;4.47;3.17;;;;;;;7.64;59.27;101841.94;5023064;28;20223;-71
2023/05/09 01:07:38;;;;;;;4.63;3.13;;;;;;;7.60;59.59;101835.66;5021651;28;20243;-72
2023/05/09 01:10:14;;;;;;;4.30;2.90;;;;;;;7.60;59.67;101834.84;5019675;28;20302;-71
2023/05/09 01:12:49;;;;;;;7.10;3.27;;;;;;;7.57;58.77;101838.81;4994395;28;20311;-72
2023/05/09 01:15:23;;;;;;;4.23;3.27;;;;;;;7.55;59.04;101832.28;5010028;28;20226;-71
2023/05/09 01:17:55;;;;;;;3.80;3.07;;;;;;;7.53;59.47;101835.19;4998288;28;20235;-70
2023/05/09 01:20:30;;;;;;;4.37;3.20;;;;;;;7.51;59.31;101824.16;5008383;28;20559;-71
2023/05/09 01:23:11;;;;;;;4.10;3.23;;;;;;;7.48;58.62;101837.84;5007758;28;20285;-71
2023/05/09 01:25:49;;;;;;;5.23;3.53;;;;;;;7.46;58.95;101826.81;5016420;28;20200;-71
2023/05/09 01:28:34;;;;;;;5.27;3.40;;;;;;;7.43;60.40;101834.47;5027422;28;20347;-71
2023/05/09 01:31:03;;;;;;;3.70;3.00;;;;;;;7.43;58.70;101837.91;5016899;28;20204;-70
2023/05/09 01:33:32;;;;;;;4.97;3.50;;;;;;;7.40;60.74;101832.41;5016415;28;20726;-70
2023/05/09 01:36:04;;;;;;;7.30;3.03;;;;;;;7.38;58.97;101832.66;4996164;28;20215;-70
2023/05/09 01:38:32;;;;;;;5.93;3.73;;;;;;;7.36;60.90;101831.38;4998250;28;20306;-71
2023/05/09 01:41:00;;;;;;;3.90;3.17;;;;;;;7.33;59.74;101824.03;5002566;28;20225;-71
2023/05/09 01:43:29;;;;;;;4.53;3.33;;;;;;;7.28;60.81;101821.44;4994178;28;20217;-68
2023/05/09 01:45:58;;;;;;;5.00;3.73;;;;;;;7.26;59.68;101820.94;5010299;28;20260;-68
2023/05/09 01:48:28;;;;;;;4.03;3.27;;;;;;;7.21;60.25;101818.34;5013597;28;20237;-68
2023/05/09 01:50:57;;;;;;;5.80;3.40;;;;;;;7.17;59.28;101822.56;5016557;28;20207;-68
2023/05/09 01:53:25;;;;;;;5.77;3.50;;;;;;;7.14;59.73;101823.13;4997108;28;20212;-69
2023/05/09 01:55:54;;;;;;;7.10;3.90;;;;;;;7.10;61.24;101820.22;5014370;28;20207;-70
2023/05/09 01:58:22;;;;;;;3.80;3.30;;;;;;;7.05;60.84;101820.25;5010416;28;20227;-69
2023/05/09 02:00:52;;;;;;;6.90;3.60;;;;;;;7.02;60.05;101809.50;5012943;28;20199;-68
2023/05/09 02:03:20;;;;;;;4.30;3.00;;;;;;;6.98;61.22;101803.22;4999913;28;20675;-67
2023/05/09 02:05:50;;;;;;;5.50;3.50;;;;;;;6.94;61.12;101804.84;5015427;28;20210;-69
2023/05/09 02:08:20;;;;;;;7.73;3.60;;;;;;;6.91;60.97;101818.50;4998626;28;20812;-68
2023/05/09 02:10:48;;;;;;;5.47;3.60;;;;;;;6.86;60.78;101808.81;5019268;28;20205;-69
2023/05/09 02:13:15;;;;;;;8.10;3.60;;;;;;;6.83;60.69;101806.72;5011158;28;20681;-69
2023/05/09 02:15:42;;;;;;;4.33;3.53;;;;;;;6.80;60.58;101807.28;5012870;28;20207;-69
2023/05/09 02:18:09;;;;;;;5.57;4.20;;;;;;;6.77;61.08;101810.44;4998317;28;20227;-70
2023/05/09 02:20:36;;;;;;;4.10;3.53;;;;;;;6.74;61.37;101802.31;5010672;28;20219;-68
2023/05/09 02:23:05;;;;;;;5.67;3.27;;;;;;;6.69;61.34;101803.13;4996174;28;20261;-69
2023/05/09 02:25:33;;;;;;;5.73;3.53;;;;;;;6.65;61.59;101804.72;4994869;28;20285;-69
2023/05/09 02:28:00;;;;;;;5.70;3.30;;;;;;;6.61;61.56;101806.31;5010852;28;20228;-70
2023/05/09 02:30:31;;;;;;;4.60;3.20;;;;;;;6.57;61.85;101809.75;5014433;28;20219;-70
2023/05/09 02:33:03;;;;;;;5.33;3.53;;;;;;;6.51;61.78;101803.72;5005329;28;20189;-69
2023/05/09 02:35:33;;;;;;;6.43;3.97;;;;;;;6.47;61.60;101813.19;5004473;28;20215;-69
2023/05/09 02:38:00;;;;;;;7.33;4.10;;;;;;;6.42;62.54;101809.81;5017629;28;20657;-70
2023/05/09 02:40:30;;;;;;;5.53;3.40;;;;;;;6.39;62.72;101805.88;4983885;28;20301;-70
2023/05/09 02:42:57;;;;;;;3.97;3.20;;;;;;;6.34;62.86;101811.16;5005777;28;20212;-68
2023/05/09 02:45:24;;;;;;;4.93;3.47;;;;;;;6.32;62.70;101815.84;5011487;28;20218;-69
2023/05/09 02:47:50;;;;;;;5.23;3.47;;;;;;;6.30;62.99;101828.47;5017139;28;20224;-68
2023/05/09 02:50:17;;;;;;;4.67;3.47;;;;;;;6.25;63.04;101817.97;4989705;28;20582;-70
2023/05/09 02:52:44;;;;;;;5.70;4.03;;;;;;;6.23;63.20;101816.69;5013017;28;20302;-69
2023/05/09 02:55:11;;;;;;;7.00;3.80;;;;;;;6.19;63.13;101815.63;5013246;28;20213;-69
2023/05/09 02:57:41;;;;;;;5.77;3.90;;;;;;;6.14;63.56;101823.50;4994276;28;20226;-70
2023/05/09 03:00:09;;;;;;;5.80;3.70;;;;;;;6.10;63.56;101822.47;5013771;28;20203;-70
2023/05/09 03:02:36;;;;;;;7.20;4.00;;;;;;;6.07;63.53;101829.00;5008863;28;20209;-69
2023/05/09 03:05:03;;;;;;;4.83;3.67;;;;;;;6.02;63.78;101823.00;4996075;28;20254;-69
2023/05/09 03:07:30;;;;;;;6.13;4.03;;;;;;;5.98;64.26;101817.53;5010035;28;20220;-69
2023/05/09 03:09:57;;;;;;;6.17;3.47;;;;;;;5.95;64.05;101817.25;5013646;28;20228;-67
2023/05/09 03:12:24;;;;;;;4.87;3.40;;;;;;;5.93;64.21;101806.25;5000462;28;20572;-70
2023/05/09 03:14:54;;;;;;;4.60;3.50;;;;;;;5.90;64.23;101802.31;4997986;28;20600;-70
2023/05/09 03:17:22;;;;;;;4.37;3.40;;;;;;;5.88;64.26;101801.00;4998306;28;20673;-69
2023/05/09 03:19:49;;;;;;;5.37;3.77;;;;;;;5.86;64.10;101806.50;4997911;28;20221;-68
2023/05/09 03:22:15;;;;;;;7.10;3.73;;;;;;;5.86;64.77;101810.97;5010401;28;20689;-70
2023/05/09 03:24:53;;;;;;;5.00;3.37;;;;;;;5.83;64.25;101812.28;5004391;28;20212;-70
2023/05/09 03:27:19;;;;;;;7.70;3.70;;;;;;;5.82;64.92;101807.31;5003451;28;20236;-70
2023/05/09 03:29:48;;;;;;;6.20;3.87;;;;;;;5.83;64.70;101807.03;4995674;28;20634;-70
2023/05/09 03:32:17;;;;;;;4.93;3.73;;;;;;;5.82;64.61;101800.25;4994760;28;20204;-70
2023/05/09 03:34:43;;;;;;;8.80;3.70;;;;;;;5.82;65.06;101792.38;5012692;28;20197;-69
2023/05/09 03:37:10;;;;;;;4.63;3.63;;;;;;;5.83;64.89;101796.56;4995293;28;20208;-68
2023/05/09 03:39:39;;;;;;;5.13;3.57;;;;;;;5.85;65.00;101796.31;4997361;28;20327;-69
2023/05/09 03:42:06;;;;;;;5.27;3.13;;;;;;;5.85;65.26;101797.06;5011372;28;20702;-69
2023/05/09 03:44:32;;;;;;;9.40;3.90;;;;;;;5.86;64.97;101798.63;5010934;28;21713;-69
2023/05/09 03:47:00;;;;;;;6.27;4.20;;;;;;;5.87;64.79;101804.69;4999967;28;20207;-69
2023/05/09 03:49:32;;;;;;;4.87;3.40;;;;;;;5.87;64.91;101802.06;4995305;28;20228;-69
2023/05/09 03:51:59;;;;;;;6.17;3.90;;;;;;;5.87;64.79;101795.00;5013222;28;20204;-69
2023/05/09 03:54:26;;;;;;;5.77;3.50;;;;;;;5.88;65.30;101799.19;4994572;28;20258;-69
2023/05/09 03:56:53;;;;;;;8.83;4.10;;;;;;;5.89;65.83;101802.56;5015018;28;20231;-70
2023/05/09 03:59:20;;;;;;;11.17;4.87;;;;;;;5.88;65.11;101804.41;5013168;28;20226;-69
2023/05/09 04:01:46;;;;;;;4.10;3.33;;;;;;;5.90;65.38;101804.94;5008238;28;20224;-69
2023/05/09 04:04:13;;;;;;;4.90;3.83;;;;;;;5.91;65.52;101805.72;5010613;28;20200;-69
2023/05/09 04:06:41;;;;;;;6.20;4.50;;;;;;;5.92;65.21;101797.59;4993711;28;20474;-69
2023/05/09 04:09:10;;;;;;;7.00;4.83;;;;;;;5.97;64.97;101799.44;5013410;28;20315;-68
2023/05/09 04:11:36;;;;;;;13.90;8.13;;;;;;;6.00;65.57;101801.53;5009268;28;20198;-69
2023/05/09 04:14:08;;;;;;;8.47;4.90;;;;;;;6.03;65.38;101798.34;4995062;28;20238;-69
2023/05/09 04:16:36;;;;;;;10.40;5.53;;;;;;;6.07;65.43;101792.31;5007226;28;20234;-70
2023/05/09 04:19:03;;;;;;;9.20;4.50;;;;;;;6.12;65.70;101797.53;4980764;28;20366;-68
2023/05/09 04:21:30;;;;;;;6.67;4.80;;;;;;;6.18;65.42;101793.09;4998329;28;20233;-68
2023/05/09 04:24:01;;;;;;;12.37;7.67;;;;;;;6.21;65.27;101793.34;4994341;28;20200;-69
2023/05/09 04:26:37;;;;;;;5.73;4.10;;;;;;;6.28;64.93;101798.31;4981121;28;20269;-68
2023/05/09 04:29:06;;;;;;;8.40;5.70;;;;;;;6.33;65.48;101801.69;4995226;28;20224;-68
2023/05/09 04:31:33;;;;;;;8.10;4.63;;;;;;;6.40;65.08;101798.78;4993420;28;20210;-68
2023/05/09 04:34:01;;;;;;;10.93;5.53;;;;;;;6.46;64.73;101795.06;4997504;28;20215;-69
2023/05/09 04:36:32;;;;;;;19.10;9.70;;;;;;;6.52;64.44;101794.03;5011392;28;20208;-67
2023/05/09 04:39:04;;;;;;;7.10;5.00;;;;;;;6.59;64.96;101799.75;5010436;28;20737;-69
2023/05/09 04:41:31;;;;;;;10.33;4.80;;;;;;;6.67;66.26;101807.06;4988760;28;20576;-68
2023/05/09 04:43:58;;;;;;;7.27;4.57;;;;;;;6.75;63.96;101802.06;5008332;28;20243;-70
2023/05/09 04:46:29;;;;;;;6.13;4.37;;;;;;;6.82;64.01;101805.16;4985902;28;20581;-69
2023/05/09 04:48:55;;;;;;;6.50;4.13;;;;;;;6.87;64.01;101804.34;5011021;28;20691;-69
2023/05/09 04:51:22;;;;;;;7.43;4.50;;;;;;;6.95;65.12;101798.53;5006060;28;20379;-70
2023/05/09 04:53:51;;;;;;;6.03;4.60;;;;;;;7.00;63.03;101809.00;5012548;28;20223;-68
2023/05/09 04:56:21;;;;;;;6.30;4.20;;;;;;;7.06;63.80;101807.91;5003806;28;20806;-70
2023/05/09 04:58:48;;;;;;;5.00;4.20;;;;;;;7.12;63.99;101806.84;5012052;28;20752;-70
2023/05/09 05:01:15;;;;;;;6.63;4.60;;;;;;;7.16;63.99;101808.66;5007843;28;20212;-69
2023/05/09 05:03:42;;;;;;;5.97;4.00;;;;;;;7.22;63.13;101807.56;4982586;28;20285;-68
2023/05/09 05:06:09;;;;;;;7.23;4.60;;;;;;;7.28;63.37;101810.94;4986449;28;20970;-70
2023/05/09 05:08:37;;;;;;;6.37;4.60;;;;;;;7.33;62.66;101810.88;5013043;28;20328;-69
2023/05/09 05:11:04;;;;;;;5.57;4.10;;;;;;;7.38;64.46;101808.22;4998453;28;20219;-69
2023/05/09 05:13:35;;;;;;;8.37;4.83;;;;;;;7.43;63.01;101806.34;5015592;28;20269;-69
2023/05/09 05:16:02;;;;;;;9.37;4.90;;;;;;;7.47;62.85;101815.28;5009743;28;20224;-69
2023/05/09 05:18:32;;;;;;;6.20;4.20;;;;;;;7.55;63.56;101812.03;4997747;28;20310;-70
2023/05/09 05:20:59;;;;;;;6.70;4.80;;;;;;;7.60;62.44;101803.31;5013536;28;20876;-70
2023/05/09 05:23:26;;;;;;;5.97;4.60;;;;;;;7.67;62.58;101806.44;5020999;28;20196;-69
2023/05/09 05:25:54;;;;;;;6.07;4.13;;;;;;;7.72;62.59;101809.03;5011421;28;20258;-69
2023/05/09 05:28:22;;;;;;;5.33;4.50;;;;;;;7.80;62.03;101803.16;4997214;28;20315;-70
2023/05/09 05:30:52;;;;;;;5.63;3.73;;;;;;;7.86;63.46;101805.47;4988434;28;20375;-68
2023/05/09 05:33:19;;;;;;;8.47;4.60;;;;;;;7.94;62.60;101804.06;4994502;28;20217;-70
2023/05/09 05:35:52;;;;;;;6.53;4.77;;;;;;;8.02;62.22;101801.63;5033282;28;21111;-69
2023/05/09 05:38:19;;;;;;;7.53;4.73;;;;;;;8.10;63.58;101785.25;5004413;28;20701;-68
2023/05/09 05:40:50;;;;;;;5.50;4.13;;;;;;;8.17;61.45;101785.69;5001613;28;20540;-68
2023/05/09 05:43:17;;;;;;;7.43;4.60;;;;;;;8.27;60.55;101782.19;4999299;28;20220;-70
2023/05/09 05:45:44;;;;;;;5.87;4.67;;;;;;;8.34;61.30;101780.78;4997217;28;20200;-68
2023/05/09 05:48:19;;;;;;;6.90;4.53;;;;;;;8.43;61.60;101775.69;5015586;28;20310;-70
2023/05/09 05:50:47;;;;;;;5.37;4.10;;;;;;;8.51;60.92;101778.47;5017140;28;20268;-69
2023/05/09 05:53:17;;;;;;;7.73;4.40;;;;;;;8.58;62.50;101773.66;5018416;28;20662;-68
2023/05/09 05:55:44;;;;;;;5.57;4.40;;;;;;;8.68;59.41;101775.34;5016279;28;20789;-69
2023/05/09 05:58:15;;;;;;;5.50;4.20;;;;;;;8.78;59.57;101773.38;4999652;28;20236;-69
2023/05/09 06:00:44;;;;;;;5.63;4.20;;;;;;;8.85;59.92;101776.44;5016832;28;20208;-70
2023/05/09 06:03:14;;;;;;;8.13;4.17;;;;;;;8.93;61.01;101775.00;4997721;28;20208;-68
2023/05/09 06:05:48;;;;;;;7.03;4.13;;;;;;;9.04;60.83;101769.31;4998805;28;20602;-70
2023/05/09 06:08:15;;;;;;;5.07;4.20;;;;;;;9.13;60.77;101769.47;4998583;28;20239;-69
2023/05/09 06:10:42;;;;;;;4.87;4.07;;;;;;;9.23;60.08;101775.38;4988749;28;20213;-70
2023/05/09 06:13:11;;;;;;;6.53;4.83;;;;;;;9.31;60.71;101768.66;4990946;28;20292;-68
2023/05/09 06:15:40;;;;;;;5.77;4.03;;;;;;;9.42;58.85;101765.56;4988168;28;20220;-68
2023/05/09 06:18:07;;;;;;;5.67;4.03;;;;;;;9.54;59.68;101767.75;5003229;28;20951;-69
2023/05/09 06:20:34;;;;;;;7.70;4.00;;;;;;;9.64;59.13;101759.66;4999312;28;20273;-70
2023/05/09 06:23:02;;;;;;;7.03;4.03;;;;;;;9.74;58.16;101757.63;4989104;28;20681;-68
2023/05/09 06:25:29;;;;;;;6.87;4.17;;;;;;;9.82;57.08;101745.63;5007480;28;20231;-69
2023/05/09 06:27:56;;;;;;;6.13;4.40;;;;;;;9.91;56.26;101741.22;5009061;28;20214;-69
2023/05/09 06:30:22;;;;;;;5.47;4.13;;;;;;;9.98;56.54;101750.31;5007912;28;20210;-70
2023/05/09 06:32:49;;;;;;;5.80;4.57;;;;;;;10.06;57.73;101740.97;4999579;28;20591;-70
2023/05/09 06:35:15;;;;;;;4.63;3.80;;;;;;;10.18;57.68;101735.97;5007150;28;20278;-70
2023/05/09 06:37:42;;;;;;;4.57;3.80;;;;;;;10.27;56.28;101739.50;4998784;28;20865;-68
2023/05/09 06:40:13;;;;;;;5.23;3.97;;;;;;;10.37;55.72;101731.38;5005023;28;20228;-69
2023/05/09 06:42:41;;;;;;;4.50;3.97;;;;;;;10.45;56.17;101734.09;5009785;28;20201;-68
2023/05/09 06:45:08;;;;;;;6.33;3.63;;;;;;;10.56;54.11;101718.84;5011872;28;20228;-69
2023/05/09 06:47:35;;;;;;;5.83;4.03;;;;;;;10.66;54.84;101734.47;5004917;28;20635;-70
2023/05/09 06:50:02;;;;;;;4.77;3.70;;;;;;;10.78;54.73;101724.16;4997525;28;20223;-69
2023/05/09 06:52:29;;;;;;;7.03;3.67;;;;;;;10.88;52.10;101718.63;5008472;28;20414;-69
2023/05/09 06:54:55;;;;;;;5.13;4.20;;;;;;;10.94;54.18;101720.06;5008439;28;20724;-69
2023/05/09 06:57:23;;;;;;;6.93;3.93;;;;;;;11.01;54.55;101713.28;5001170;28;20215;-68
2023/05/09 06:59:49;;;;;;;6.23;4.20;;;;;;;11.11;55.47;101709.63;5001223;28;20223;-68
2023/05/09 07:02:16;;;;;;;6.13;4.20;;;;;;;11.28;54.87;101707.09;4990535;28;20215;-69
2023/05/09 07:04:42;;;;;;;5.07;3.40;;;;;;;11.38;54.52;101709.50;5005658;28;20301;-69
2023/05/09 07:07:09;;;;;;;7.07;3.50;;;;;;;11.48;52.33;101701.28;4999653;28;20213;-69
2023/05/09 07:09:36;;;;;;;4.20;3.80;;;;;;;11.57;50.80;101708.19;5009515;28;20303;-69
2023/05/09 07:12:02;;;;;;;7.60;3.77;;;;;;;11.66;51.13;101695.81;4993115;28;20208;-69
2023/05/09 07:14:30;;;;;;;6.53;4.23;;;;;;;11.78;51.43;101698.66;5007241;28;20660;-69
2023/05/09 07:16:57;;;;;;;4.50;3.80;;;;;;;11.84;50.62;101694.78;5009561;28;20216;-69
2023/05/09 07:19:23;;;;;;;5.10;3.50;;;;;;;11.94;52.03;101693.72;4985524;28;20609;-70
2023/05/09 07:21:50;;;;;;;8.37;3.53;;;;;;;12.00;52.00;101695.16;5003887;28;20205;-69
2023/05/09 07:24:17;;;;;;;6.43;3.63;;;;;;;12.11;48.54;101697.19;5011022;28;20333;-68
2023/05/09 07:26:43;;;;;;;5.87;3.60;;;;;;;12.20;48.91;101679.47;4999869;28;20197;-69
2023/05/09 07:29:09;;;;;;;8.03;3.87;;;;;;;12.27;50.76;101689.59;4995835;28;20230;-69
2023/05/09 07:31:37;;;;;;;6.30;3.50;;;;;;;12.35;49.29;101673.72;5004557;28;20675;-69
2023/05/09 07:34:03;;;;;;;5.93;3.40;;;;;;;12.43;47.00;101678.22;5011252;28;20234;-70
2023/05/09 07:36:30;;;;;;;7.40;3.70;;;;;;;12.51;48.47;101666.88;5015130;28;20205;-70
2023/05/09 07:38:56;;;;;;;20.37;4.57;;;;;;;12.60;48.89;101669.50;5013174;28;20231;-69
2023/05/09 07:41:23;;;;;;;6.40;3.60;;;;;;;12.68;48.76;101656.25;5008572;28;20214;-69
2023/05/09 07:43:49;;;;;;;7.53;3.43;;;;;;;12.76;50.58;101657.34;4993634;28;20722;-69
2023/05/09 07:46:16;;;;;;;6.27;3.30;;;;;;;12.87;46.81;101658.56;5005922;28;20216;-69
2023/05/09 07:48:44;;;;;;;9.13;3.57;;;;;;;12.96;50.02;101657.53;5007690;28;20238;-69
2023/05/09 07:51:10;;;;;;;5.23;3.23;;;;;;;13.04;49.48;101654.06;5011239;28;20297;-69
2023/05/09 07:53:37;;;;;;;7.97;2.93;;;;;;;13.08;49.47;101647.03;5003310;28;20200;-69
2023/05/09 07:56:05;;;;;;;3.63;2.90;;;;;;;13.16;48.25;101648.91;5015697;28;20214;-69
2023/05/09 07:58:32;;;;;;;5.40;3.00;;;;;;;13.23;46.33;101643.88;5002060;28;20231;-69
2023/05/09 08:00:58;;;;;;;5.13;2.60;;;;;;;13.29;45.55;101642.59;5005444;28;20219;-70
2023/05/09 08:03:25;;;;;;;3.23;2.87;;;;;;;13.37;47.33;101633.06;5003796;28;20226;-69
2023/05/09 08:05:55;;;;;;;8.53;2.60;;;;;;;13.45;46.23;101630.38;4997904;28;20209;-69
2023/05/09 08:08:22;;;;;;;5.17;2.97;;;;;;;13.50;47.49;101626.78;5007026;28;20649;-69
2023/05/09 08:10:48;;;;;;;4.47;3.30;;;;;;;13.56;49.06;101620.94;5007531;28;20388;-70
2023/05/09 08:13:15;;;;;;;7.43;3.27;;;;;;;13.65;45.23;101615.59;5000974;28;20188;-69
2023/05/09 08:15:41;;;;;;;5.97;3.20;;;;;;;13.77;45.88;101627.09;5030016;23;20241;-71
2023/05/09 08:18:08;;;;;;;3.67;3.10;;;;;;;13.82;46.14;101618.19;5049883;28;20226;-70
2023/05/09 08:20:36;;;;;;;4.43;2.90;;;;;;;13.91;45.55;101618.88;5036962;28;20593;-70
2023/05/09 08:23:04;;;;;;;7.37;3.57;;;;;;;14.00;46.16;101612.44;5052549;28;20295;-70
2023/05/09 08:25:31;;;;;;;4.10;2.83;;;;;;;14.07;46.73;101614.59;5053579;28;20596;-70
2023/05/09 08:27:57;;;;;;;5.67;3.20;;;;;;;14.13;44.11;101607.97;5057061;28;20200;-69
2023/05/09 08:30:24;;;;;;;3.13;2.83;;;;;;;14.19;47.00;101606.66;5061855;28;20261;-68
2023/05/09 08:32:50;;;;;;;3.57;2.60;;;;;;;14.29;47.11;101601.75;5050126;28;20200;-71
2023/05/09 08:35:17;;;;;;;10.03;3.70;;;;;;;14.35;44.37;101594.38;5055888;28;20226;-70
2023/05/09 08:37:44;;;;;;;8.37;3.80;;;;;;;14.39;45.31;101590.72;5049277;28;20198;-69
2023/05/09 08:40:12;;;;;;;5.07;2.97;;;;;;;14.48;44.74;101588.78;5052811;28;20203;-73
2023/05/09 08:42:39;;;;;;;8.47;3.17;;;;;;;14.55;44.77;101578.41;5049729;28;20311;-73
2023/05/09 08:45:10;;;;;;;8.67;3.10;;;;;;;14.64;45.97;101579.09;5035117;28;20679;-72
2023/05/09 08:47:37;;;;;;;3.87;3.20;;;;;;;14.78;43.48;101581.44;5049021;28;20677;-73
2023/05/09 08:50:05;;;;;;;6.60;3.50;;;;;;;14.82;46.71;101575.16;5048301;28;20696;-74
2023/05/09 08:52:32;;;;;;;3.87;2.87;;;;;;;14.86;45.90;101576.03;5045666;28;20208;-73
2023/05/09 08:54:59;;;;;;;3.27;2.83;;;;;;;14.94;42.00;101579.72;5051057;28;20199;-73
2023/05/09 08:57:27;;;;;;;5.57;3.40;;;;;;;14.99;45.45;101579.50;5040629;28;20257;-73
2023/05/09 08:59:55;;;;;;;10.97;3.47;;;;;;;15.07;45.46;101565.34;5052998;28;20210;-73
2023/05/09 09:02:21;;;;;;;5.13;3.20;;;;;;;15.13;43.59;101561.34;5049787;28;20217;-72
2023/05/09 09:04:48;;;;;;;5.03;3.07;;;;;;;15.19;46.47;101568.78;5052244;28;20442;-72
2023/05/09 09:07:15;;;;;;;6.90;2.80;;;;;;;15.23;46.05;101561.69;5053654;28;20210;-72
2023/05/09 09:09:44;;;;;;;5.10;3.00;;;;;;;15.26;44.91;101555.69;5055166;28;20584;-73
2023/05/09 09:12:11;;;;;;;3.50;2.83;;;;;;;15.31;43.83;101557.38;5057858;28;20214;-73
2023/05/09 09:14:42;;;;;;;6.47;3.30;;;;;;;15.37;42.91;101556.06;5058013;28;20202;-73
2023/05/09 09:17:11;;;;;;;4.37;3.03;;;;;;;15.42;45.02;101539.88;5052828;28;20199;-73
2023/05/09 09:19:40;;;;;;;4.83;3.10;;;;;;;15.46;45.20;101549.50;5057922;28;20224;-74
2023/05/09 09:22:08;;;;;;;5.00;3.10;;;;;;;15.58;43.42;101548.72;5054402;28;20202;-73
2023/05/09 09:24:35;;;;;;;8.10;3.10;;;;;;;15.61;44.57;101540.84;5056958;28;20206;-73
2023/05/09 09:27:06;;;;;;;4.80;3.10;;;;;;;15.67;44.64;101523.53;5038869;28;20225;-73
2023/05/09 09:29:33;;;;;;;4.90;2.47;;;;;;;15.75;45.22;101529.84;5055998;28;20221;-72
2023/05/09 09:32:03;;;;;;;3.37;2.80;;;;;;;15.82;45.27;101530.81;5054865;28;20201;-72
2023/05/09 09:34:30;;;;;;;7.03;3.30;;;;;;;15.91;44.74;101533.34;5055022;28;20233;-72
2023/05/09 09:36:56;;;;;;;5.80;3.20;;;;;;;15.96;41.49;101528.56;5054916;28;20230;-72
2023/05/09 09:39:23;;;;;;;4.80;2.73;;;;;;;16.04;44.48;101534.88;5058373;28;20208;-72
2023/05/09 09:41:49;;;;;;;3.27;2.77;;;;;;;16.11;41.02;101532.38;5034203;28;21091;-72
2023/05/09 09:44:17;;;;;;;5.00;2.87;;;;;;;16.16;39.99;101527.59;5052404;28;20206;-72
2023/05/09 09:46:45;;;;;;;5.27;3.30;;;;;;;16.21;41.39;101519.38;5037998;28;20269;-73
2023/05/09 09:49:14;;;;;;;4.80;2.93;;;;;;;16.27;44.25;101518.00;5052558;28;20225;-72
2023/05/09 09:51:41;;;;;;;7.57;3.37;;;;;;;16.33;42.34;101526.50;5052241;28;20216;-74
2023/05/09 09:54:08;;;;;;;4.63;2.63;;;;;;;16.40;40.94;101521.41;5052349;28;20482;-73
2023/05/09 09:56:39;;;;;;;6.97;3.17;;;;;;;16.44;41.84;101520.38;5036376;28;20607;-72
2023/05/09 09:59:10;;;;;;;7.10;3.57;;;;;;;16.49;43.65;101509.47;5026017;28;20639;-72
2023/05/09 10:01:54;;;;;;;7.77;3.27;;;;;;;16.57;42.26;101500.53;5054162;28;20209;-72
2023/05/09 10:04:21;;;;;;;12.37;3.50;;;;;;;16.64;41.73;101495.38;5031314;28;20202;-72
2023/05/09 10:06:52;;;;;;;3.37;2.90;;;;;;;16.68;40.40;101487.47;5048770;28;20230;-73
2023/05/09 10:09:20;;;;;;;6.57;3.17;;;;;;;16.71;39.57;101478.78;5050258;28;20213;-71
2023/05/09 10:11:49;;;;;;;7.43;3.20;;;;;;;16.76;41.63;101481.97;5036292;28;21268;-73
2023/05/09 10:14:18;;;;;;;13.53;3.30;;;;;;;16.79;42.30;101478.59;5051529;28;20222;-72
2023/05/09 10:16:47;;;;;;;5.83;3.10;;;;;;;16.83;39.27;101474.13;5033679;28;20249;-72
2023/05/09 10:19:17;;;;;;;5.30;3.10;;;;;;;16.86;41.28;101476.09;5029477;28;20211;-72
2023/05/09 10:21:49;;;;;;;6.57;2.77;;;;;;;16.90;40.20;101466.28;5051050;28;20209;-74
2023/05/09 10:24:17;;;;;;;4.00;3.00;;;;;;;16.95;40.20;101462.56;5053769;28;20293;-72
2023/05/09 10:26:47;;;;;;;6.20;2.70;;;;;;;17.01;39.76;101456.63;5056272;28;20730;-72
2023/05/09 10:29:21;;;;;;;8.10;2.87;;;;;;;17.10;39.89;101467.91;5048852;28;20210;-74
2023/05/09 10:31:54;;;;;;;8.97;2.93;;;;;;;17.19;38.81;101465.81;5038398;28;20890;-72
2023/05/09 10:34:22;;;;;;;3.80;2.70;;;;;;;17.21;41.32;101458.22;5050879;28;20213;-72
2023/05/09 10:36:50;;;;;;;4.07;2.70;;;;;;;17.28;41.75;101453.03;5034676;28;20222;-71
2023/05/09 10:39:17;;;;;;;5.27;3.00;;;;;;;17.36;39.25;101446.75;5057952;28;20211;-72
2023/05/09 10:41:44;;;;;;;4.17;2.73;;;;;;;17.43;39.50;101443.50;5056364;28;20575;-72
2023/05/09 10:44:11;;;;;;;3.43;2.80;;;;;;;17.45;41.09;101435.88;5036140;28;20620;-73
2023/05/09 10:46:38;;;;;;;4.37;2.80;;;;;;;17.51;38.78;101434.47;5053181;28;20349;-72
2023/05/09 10:49:05;;;;;;;6.90;3.13;;;;;;;17.58;38.84;101438.06;5051807;28;20627;-72
2023/05/09 10:51:31;;;;;;;8.03;3.00;;;;;;;17.61;36.59;101433.94;5045130;28;20226;-72
2023/05/09 10:53:59;;;;;;;3.63;2.80;;;;;;;17.66;38.04;101428.31;5052609;28;20202;-73
2023/05/09 10:56:29;;;;;;;3.30;2.83;;;;;;;17.70;39.48;101429.16;5052843;28;20222;-74
2023/05/09 10:58:56;;;;;;;4.07;2.90;;;;;;;17.80;38.89;101434.69;5045925;28;20195;-72
2023/05/09 11:01:31;;;;;;;5.13;3.13;;;;;;;17.82;39.47;101429.78;5031052;28;20214;-73
2023/05/09 11:03:59;;;;;;;4.13;2.77;;;;;;;17.90;39.71;101425.34;5049195;28;20564;-72
2023/05/09 11:06:44;;;;;;;6.33;2.97;;;;;;;17.92;37.84;101418.53;5039995;28;20767;-72
2023/05/09 11:09:32;;;;;;;5.73;2.97;;;;;;;17.99;40.23;101423.19;5049469;28;20708;-73
2023/05/09 11:12:01;;;;;;;4.27;2.67;;;;;;;18.07;38.42;101416.88;5048506;28;20271;-72
2023/05/09 11:14:33;;;;;;;5.93;3.20;;;;;;;18.12;41.35;101411.22;5051884;28;20214;-71
2023/05/09 11:17:02;;;;;;;5.10;2.83;;;;;;;18.18;40.01;101399.91;5055647;28;20222;-73
2023/05/09 11:19:37;;;;;;;4.10;2.87;;;;;;;18.22;38.51;101395.34;5034015;28;20210;-72
2023/05/09 11:22:12;;;;;;;3.83;2.57;;;;;;;18.21;39.49;101377.78;5045240;28;20202;-74
2023/05/09 11:24:40;;;;;;;3.43;2.70;;;;;;;18.26;39.63;101388.19;5057719;28;20684;-72
2023/05/09 11:27:14;;;;;;;8.67;3.10;;;;;;;18.30;37.73;101374.84;5056724;28;20288;-72
2023/05/09 11:29:46;;;;;;;5.40;3.07;;;;;;;18.35;35.89;101375.38;5037706;28;20206;-73
2023/05/09 11:32:14;;;;;;;3.77;2.40;;;;;;;18.38;35.36;101365.88;5035015;28;20712;-73
2023/05/09 11:34:43;;;;;;;5.30;2.70;;;;;;;18.42;39.19;101367.44;5054718;28;20206;-72